createdAt,value
2023-10-09T00:01:19.635Z,7.22
2023-10-09T00:02:56.482Z,6.80
2023-10-09T00:04:32.284Z,8.02
2023-10-09T00:06:08.318Z,7.18
2023-10-09T00:07:44.895Z,6.90
2023-10-09T00:09:20.866Z,7.50
2023-10-09T00:10:56.733Z,7.03
2023-10-09T00:12:34.956Z,7.53
2023-10-09T00:14:10.759Z,7.05
2023-10-09T00:15:54.131Z,6.82
2023-10-09T00:17:33.156Z,7.97
2023-10-09T00:19:20.889Z,7.70
2023-10-09T00:20:57.381Z,7.13
2023-10-09T00:22:39.958Z,8.30
2023-10-09T00:24:18.550Z,8.38
2023-10-09T00:26:20.781Z,7.35
2023-10-09T00:28:01.824Z,8.80
2023-10-09T00:29:44.363Z,7.65
2023-10-09T00:31:35.891Z,7.00
2023-10-09T00:33:13.638Z,8.82
2023-10-09T00:34:52.419Z,8.35
2023-10-09T00:36:31.622Z,9.05
2023-10-09T00:38:34.643Z,9.48
2023-10-09T00:40:22.100Z,8.07
2023-10-09T00:42:00.865Z,8.35
2023-10-09T00:43:38.910Z,8.93
2023-10-09T00:45:18.628Z,8.95
2023-10-09T00:46:56.088Z,7.90
2023-10-09T00:48:40.002Z,8.70
2023-10-09T00:50:18.917Z,8.75
2023-10-09T00:51:58.316Z,8.52
2023-10-09T00:53:35.040Z,8.43
2023-10-09T00:55:16.364Z,8.57
2023-10-09T00:56:59.592Z,8.30
2023-10-09T00:58:37.967Z,8.85
2023-10-09T01:00:34.563Z,9.07
2023-10-09T01:02:11.465Z,8.25
2023-10-09T01:03:47.676Z,9.30
2023-10-09T01:05:24.020Z,8.88
2023-10-09T01:07:18.421Z,9.70
2023-10-09T01:09:11.651Z,9.52
2023-10-09T01:10:55.508Z,9.00
2023-10-09T01:12:31.234Z,8.98
2023-10-09T01:14:10.327Z,9.10
2023-10-09T01:15:47.594Z,9.00
2023-10-09T01:17:38.192Z,9.10
2023-10-09T01:19:32.884Z,8.63
2023-10-09T01:21:09.037Z,9.82
2023-10-09T01:22:46.161Z,10.10
2023-10-09T01:24:22.709Z,8.82
2023-10-09T01:25:58.427Z,9.75
2023-10-09T01:27:34.416Z,8.80
2023-10-09T01:29:18.403Z,9.38
2023-10-09T01:30:57.431Z,9.77
2023-10-09T01:32:33.201Z,8.35
2023-10-09T01:34:11.984Z,9.48
2023-10-09T01:35:51.787Z,8.75
2023-10-09T01:37:38.585Z,8.40
2023-10-09T01:39:25.727Z,9.27
2023-10-09T01:41:10.629Z,8.85
2023-10-09T01:42:49.142Z,9.27
2023-10-09T01:44:25.341Z,9.77
2023-10-09T01:46:03.138Z,8.77
2023-10-09T01:47:39.986Z,9.98
2023-10-09T01:49:23.377Z,8.90
2023-10-09T01:51:00.459Z,8.65
2023-10-09T01:52:38.001Z,9.07
2023-10-09T01:54:29.747Z,9.75
2023-10-09T01:56:17.293Z,8.65
2023-10-09T01:57:53.239Z,9.00
2023-10-09T01:59:29.353Z,8.65
2023-10-09T02:01:08.780Z,8.93
2023-10-09T02:02:47.189Z,7.65
2023-10-09T02:04:23.627Z,8.88
2023-10-09T02:06:02.179Z,7.90
2023-10-09T02:07:54.431Z,8.77
2023-10-09T02:09:33.477Z,8.52
2023-10-09T02:11:16.417Z,9.25
2023-10-09T02:13:00.185Z,8.00
2023-10-09T02:14:43.337Z,9.30
2023-10-09T02:16:30.173Z,8.65
2023-10-09T02:19:54.515Z,7.53
2023-10-09T02:21:41.928Z,8.35
2023-10-09T02:23:23.328Z,7.68
2023-10-09T02:25:02.602Z,9.20
2023-10-09T02:26:41.009Z,8.55
2023-10-09T02:28:19.916Z,7.97
2023-10-09T02:29:58.678Z,9.98
2023-10-09T02:31:42.581Z,8.13
2023-10-09T02:33:32.774Z,8.23
2023-10-09T02:35:12.532Z,8.48
2023-10-09T02:36:51.656Z,8.02
2023-10-09T02:38:33.765Z,8.77
2023-10-09T02:40:10.777Z,7.68
2023-10-09T02:41:51.563Z,7.43
2023-10-09T02:43:28.616Z,9.43
2023-10-09T02:45:06.110Z,8.95
2023-10-09T02:46:42.185Z,8.18
2023-10-09T02:48:22.212Z,8.13
2023-10-09T02:50:03.386Z,9.57
2023-10-09T02:51:50.276Z,9.00
2023-10-09T02:53:32.098Z,7.60
2023-10-09T02:55:14.550Z,8.57
2023-10-09T02:57:12.070Z,7.95
2023-10-09T02:58:50.487Z,9.25
2023-10-09T03:00:31.786Z,8.85
2023-10-09T03:02:07.791Z,8.50
2023-10-09T03:03:53.158Z,8.55
2023-10-09T03:05:30.524Z,9.68
2023-10-09T03:07:06.219Z,8.73
2023-10-09T03:08:42.687Z,8.95
2023-10-09T03:10:19.570Z,7.65
2023-10-09T03:12:05.715Z,8.52
2023-10-09T03:13:46.725Z,7.57
2023-10-09T03:15:25.093Z,8.52
2023-10-09T03:17:04.252Z,8.30
2023-10-09T03:18:40.350Z,8.95
2023-10-09T03:20:19.456Z,9.20
2023-10-09T03:21:55.755Z,8.70
2023-10-09T03:23:31.729Z,8.88
2023-10-09T03:25:15.496Z,8.85
2023-10-09T03:26:51.810Z,8.95
2023-10-09T03:28:28.575Z,9.98
2023-10-09T03:30:07.249Z,10.95
2023-10-09T03:31:45.087Z,11.38
2023-10-09T03:33:21.071Z,10.60
2023-10-09T03:34:57.441Z,10.73
2023-10-09T03:36:39.562Z,9.77
2023-10-09T03:38:18.753Z,9.65
2023-10-09T03:39:56.984Z,9.70
2023-10-09T03:41:34.019Z,9.82
2023-10-09T03:43:12.177Z,10.23
2023-10-09T03:44:55.592Z,9.38
2023-10-09T03:46:35.706Z,9.90
2023-10-09T03:48:17.994Z,9.35
2023-10-09T03:49:55.879Z,9.93
2023-10-09T03:51:31.984Z,8.35
2023-10-09T03:53:13.728Z,10.25
2023-10-09T03:54:51.426Z,8.25
2023-10-09T03:56:27.755Z,9.80
2023-10-09T03:58:03.985Z,11.13
2023-10-09T03:59:39.665Z,11.43
2023-10-09T04:01:40.702Z,9.40
2023-10-09T04:03:17.595Z,10.70
2023-10-09T04:04:53.751Z,9.07
2023-10-09T04:06:32.749Z,10.07
2023-10-09T04:08:18.487Z,9.25
2023-10-09T04:10:14.275Z,9.23
2023-10-09T04:12:12.866Z,8.40
2023-10-09T04:13:48.881Z,10.48
2023-10-09T04:15:25.478Z,9.15
2023-10-09T04:17:27.663Z,7.75
2023-10-09T04:19:29.982Z,9.13
2023-10-09T04:21:21.312Z,8.50
2023-10-09T04:23:07.345Z,9.05
2023-10-09T04:24:43.447Z,8.30
2023-10-09T04:26:22.856Z,8.00
2023-10-09T04:28:11.713Z,9.25
2023-10-09T04:29:51.808Z,8.38
2023-10-09T04:31:34.161Z,8.77
2023-10-09T04:33:31.183Z,9.68
2023-10-09T04:35:26.194Z,8.07
2023-10-09T04:37:11.293Z,9.52
2023-10-09T04:39:05.655Z,8.65
2023-10-09T04:40:48.058Z,9.02
2023-10-09T04:42:27.045Z,9.10
2023-10-09T04:44:21.726Z,10.10
2023-10-09T04:46:12.248Z,9.15
2023-10-09T04:48:00.590Z,10.30
2023-10-09T04:49:57.306Z,9.77
2023-10-09T04:51:41.073Z,9.68
2023-10-09T04:53:20.022Z,10.70
2023-10-09T04:55:13.892Z,9.95
2023-10-09T04:56:55.820Z,10.15
2023-10-09T04:58:35.315Z,9.25
2023-10-09T05:00:44.736Z,10.07
2023-10-09T05:02:25.475Z,9.20
2023-10-09T05:04:05.022Z,9.23
2023-10-09T05:05:45.359Z,9.73
2023-10-09T05:07:47.825Z,9.43
2023-10-09T05:09:25.948Z,8.82
2023-10-09T05:11:03.769Z,9.88
2023-10-09T05:12:48.354Z,10.90
2023-10-09T05:14:40.655Z,8.73
2023-10-09T05:16:24.599Z,9.90
2023-10-09T05:18:11.293Z,9.45
2023-10-09T05:20:19.021Z,9.73
2023-10-09T05:21:55.239Z,8.68
2023-10-09T05:23:31.208Z,10.45
2023-10-09T05:25:17.783Z,9.13
2023-10-09T05:26:54.339Z,8.93
2023-10-09T05:28:33.431Z,8.90
2023-10-09T05:30:28.555Z,9.80
2023-10-09T05:32:14.407Z,8.95
2023-10-09T05:33:54.942Z,9.38
2023-10-09T05:35:43.252Z,8.98
2023-10-09T05:37:27.068Z,8.15
2023-10-09T05:39:24.481Z,8.88
2023-10-09T05:41:20.197Z,8.95
2023-10-09T05:43:01.943Z,9.32
2023-10-09T05:44:56.492Z,9.27
2023-10-09T05:46:37.536Z,8.07
2023-10-09T05:48:16.577Z,8.35
2023-10-09T05:50:10.769Z,9.45
2023-10-09T05:51:55.309Z,8.95
2023-10-09T05:53:46.397Z,9.30
2023-10-09T05:55:45.188Z,9.00
2023-10-09T05:57:41.214Z,9.23
2023-10-09T05:59:55.074Z,9.50
2023-10-09T06:01:49.437Z,10.10
2023-10-09T06:03:47.502Z,10.07
2023-10-09T06:05:41.710Z,9.27
2023-10-09T06:07:25.269Z,8.88
2023-10-09T06:09:18.156Z,9.05
2023-10-09T06:11:08.669Z,11.05
2023-10-09T06:12:44.553Z,11.20
2023-10-09T06:14:47.841Z,11.40
2023-10-09T06:16:44.234Z,11.95
2023-10-09T06:18:34.759Z,10.70
2023-10-09T06:20:31.261Z,11.88
2023-10-09T06:22:25.537Z,11.50
2023-10-09T06:24:20.054Z,11.00
2023-10-09T06:26:04.971Z,11.35
2023-10-09T06:27:55.685Z,12.45
2023-10-09T06:29:38.490Z,10.98
2023-10-09T06:31:51.336Z,12.65
2023-10-09T06:33:53.634Z,10.85
2023-10-09T06:35:32.779Z,9.85
2023-10-09T06:37:26.473Z,10.48
2023-10-09T06:39:22.266Z,10.95
2023-10-09T06:41:24.102Z,9.40
2023-10-09T06:43:00.082Z,10.27
2023-10-09T06:44:56.039Z,11.10
2023-10-09T06:46:47.447Z,11.35
2023-10-09T06:48:41.658Z,9.60
2023-10-09T06:50:23.426Z,10.82
2023-10-09T06:52:15.672Z,9.95
2023-10-09T06:53:57.461Z,10.75
2023-10-09T06:55:51.103Z,11.82
2023-10-09T06:57:47.312Z,12.02
2023-10-09T06:59:43.656Z,10.80
2023-10-09T07:01:27.447Z,11.20
2023-10-09T07:03:13.241Z,10.93
2023-10-09T07:04:49.387Z,10.40
2023-10-09T07:06:48.299Z,10.15
2023-10-09T07:08:39.176Z,11.15
2023-10-09T07:10:34.702Z,9.40
2023-10-09T07:12:28.125Z,10.10
2023-10-09T07:14:04.537Z,10.30
2023-10-09T07:16:03.767Z,9.73
2023-10-09T07:17:39.532Z,9.57
2023-10-09T07:19:37.367Z,9.77
2023-10-09T07:21:19.914Z,9.10
2023-10-09T07:22:58.101Z,9.93
2023-10-09T07:24:45.364Z,9.48
2023-10-09T07:26:25.103Z,10.45
2023-10-09T07:28:04.603Z,10.57
2023-10-09T07:29:49.840Z,9.90
2023-10-09T07:31:29.646Z,9.32
2023-10-09T07:33:13.962Z,9.90
2023-10-09T07:34:54.816Z,11.27
2023-10-09T07:36:36.925Z,9.75
2023-10-09T07:38:30.498Z,10.02
2023-10-09T07:40:10.069Z,10.55
2023-10-09T07:41:58.248Z,11.25
2023-10-09T07:43:41.640Z,10.15
2023-10-09T07:45:23.391Z,10.27
2023-10-09T07:47:17.392Z,8.88
2023-10-09T07:48:56.656Z,10.25
2023-10-09T07:50:50.623Z,10.52
2023-10-09T07:52:28.084Z,10.00
2023-10-09T07:54:10.553Z,10.57
2023-10-09T07:55:56.124Z,9.90
2023-10-09T07:57:40.677Z,11.35
2023-10-09T07:59:20.147Z,10.40
2023-10-09T08:01:09.870Z,10.35
2023-10-09T08:02:45.920Z,10.85
2023-10-09T08:04:41.641Z,10.45
2023-10-09T08:06:36.872Z,10.13
2023-10-09T08:08:39.661Z,11.07
2023-10-09T08:10:15.801Z,10.82
2023-10-09T08:12:27.209Z,10.52
2023-10-09T08:14:03.828Z,10.30
2023-10-09T08:15:55.026Z,9.18
2023-10-09T08:17:31.152Z,10.68
2023-10-09T08:19:29.965Z,9.25
2023-10-09T08:21:05.968Z,10.63
2023-10-09T08:22:54.440Z,9.60
2023-10-09T08:24:59.149Z,11.27
2023-10-09T08:26:49.282Z,10.88
2023-10-09T08:28:41.560Z,11.50
2023-10-09T08:30:20.381Z,10.25
2023-10-09T08:31:58.956Z,10.27
2023-10-09T08:35:31.564Z,10.15
2023-10-09T08:37:08.431Z,10.88
2023-10-09T08:38:44.290Z,10.27
2023-10-09T08:40:23.073Z,11.05
2023-10-09T08:42:03.994Z,10.18
2023-10-09T08:43:44.063Z,10.43
2023-10-09T08:45:29.599Z,10.10
2023-10-09T08:47:09.418Z,10.75
2023-10-09T08:48:45.279Z,10.98
2023-10-09T08:50:21.655Z,10.57
2023-10-09T08:51:58.918Z,10.85
2023-10-09T08:53:35.269Z,9.45
2023-10-09T08:55:11.361Z,10.45
2023-10-09T08:56:53.117Z,10.27
2023-10-09T08:58:34.657Z,9.43
2023-10-09T09:00:14.251Z,10.50
2023-10-09T09:01:51.598Z,11.18
2023-10-09T09:03:27.933Z,9.43
2023-10-09T09:05:20.574Z,9.57
2023-10-09T09:06:56.515Z,8.95
2023-10-09T09:08:34.593Z,9.82
2023-10-09T09:10:19.538Z,10.02
2023-10-09T09:11:55.644Z,9.85
2023-10-09T09:13:33.732Z,10.57
2023-10-09T09:15:28.886Z,9.20
2023-10-09T09:17:07.062Z,9.38
2023-10-09T09:18:58.346Z,9.93
2023-10-09T09:20:55.740Z,9.05
2023-10-09T09:22:53.879Z,9.18
2023-10-09T09:24:32.894Z,9.77
2023-10-09T09:26:13.969Z,8.57
2023-10-09T09:27:59.317Z,8.85
2023-10-09T09:29:41.118Z,9.18
2023-10-09T09:31:24.225Z,8.60
2023-10-09T09:33:22.606Z,9.73
2023-10-09T09:35:06.285Z,10.30
2023-10-09T09:36:59.969Z,9.68
2023-10-09T09:38:44.227Z,8.93
2023-10-09T09:40:35.277Z,10.60
2023-10-09T09:42:15.895Z,8.80
2023-10-09T09:44:03.768Z,8.70
2023-10-09T09:45:41.662Z,9.25
2023-10-09T09:47:30.028Z,9.13
2023-10-09T09:49:23.693Z,9.98
2023-10-09T09:50:59.738Z,8.82
2023-10-09T09:52:40.644Z,9.27
2023-10-09T09:54:17.705Z,9.43
2023-10-09T09:55:59.685Z,8.85
2023-10-09T09:57:41.594Z,8.95
2023-10-09T09:59:23.464Z,8.80
2023-10-09T10:01:18.197Z,10.18
2023-10-09T10:02:58.398Z,9.57
2023-10-09T10:04:39.996Z,8.68
2023-10-09T10:06:21.118Z,8.70
2023-10-09T10:07:58.199Z,9.85
2023-10-09T10:09:43.827Z,9.15
2023-10-09T10:11:48.642Z,8.93
2023-10-09T10:13:44.139Z,8.63
2023-10-09T10:15:21.036Z,9.02
2023-10-09T10:17:20.436Z,9.32
2023-10-09T10:19:09.271Z,7.63
2023-10-09T10:21:35.165Z,9.75
2023-10-09T10:23:23.122Z,7.00
2023-10-09T10:25:11.487Z,7.35
2023-10-09T10:26:47.408Z,7.35
2023-10-09T10:28:40.823Z,7.75
2023-10-09T10:30:26.021Z,8.43
2023-10-09T10:32:12.517Z,9.00
2023-10-09T10:33:57.232Z,8.32
2023-10-09T10:35:46.872Z,7.88
2023-10-09T10:37:24.182Z,7.35
2023-10-09T10:39:21.609Z,7.90
2023-10-09T10:41:02.640Z,7.18
2023-10-09T10:42:59.784Z,7.38
2023-10-09T10:44:38.593Z,7.90
2023-10-09T10:46:26.203Z,7.43
2023-10-09T10:48:08.760Z,7.10
2023-10-09T10:49:51.193Z,7.32
2023-10-09T10:51:44.014Z,7.18
2023-10-09T10:53:21.842Z,6.85
2023-10-09T10:55:19.934Z,6.85
2023-10-09T10:56:59.485Z,6.82
2023-10-09T10:58:49.513Z,6.63
2023-10-09T11:00:45.401Z,7.80
2023-10-09T11:02:30.188Z,7.38
2023-10-09T11:04:15.015Z,7.57
2023-10-09T11:05:54.868Z,7.57
2023-10-09T11:07:30.958Z,8.20
2023-10-09T11:09:50.183Z,7.40
2023-10-09T11:11:43.105Z,6.90
2023-10-09T11:13:34.852Z,7.35
2023-10-09T11:15:24.219Z,6.80
2023-10-09T11:17:00.191Z,6.35
2023-10-09T11:18:51.072Z,6.65
2023-10-09T11:20:28.452Z,6.80
2023-10-09T11:22:10.718Z,6.93
2023-10-09T11:23:52.945Z,7.50
2023-10-09T11:25:29.112Z,30.60
2023-10-09T11:27:09.177Z,7.90
2023-10-09T11:28:50.822Z,7.32
2023-10-09T11:30:34.563Z,31.75
2023-10-09T11:32:19.497Z,7.82
2023-10-09T11:33:55.912Z,7.43
2023-10-09T11:35:36.790Z,6.68
2023-10-09T11:37:27.538Z,6.50
2023-10-09T11:39:23.794Z,6.55
2023-10-09T11:41:00.002Z,7.30
2023-10-09T11:42:40.595Z,6.40
2023-10-09T11:46:14.002Z,6.70
2023-10-09T11:48:01.048Z,7.18
2023-10-09T11:49:46.398Z,6.53
2023-10-09T11:51:23.353Z,7.07
2023-10-09T11:53:19.375Z,6.90
2023-10-09T11:54:58.262Z,7.07
2023-10-09T11:56:34.438Z,7.38
2023-10-09T11:58:11.000Z,6.57
2023-10-09T11:59:46.855Z,6.97
2023-10-09T12:01:25.359Z,6.63
2023-10-09T12:03:08.272Z,7.47
2023-10-09T12:04:46.813Z,7.95
2023-10-09T12:06:34.139Z,6.97
2023-10-09T12:08:10.514Z,6.93
2023-10-09T12:09:46.312Z,7.15
2023-10-09T12:11:30.980Z,7.55
2023-10-09T12:13:09.529Z,7.22
2023-10-09T12:14:46.046Z,8.45
2023-10-09T12:16:24.120Z,7.35
2023-10-09T12:18:00.099Z,8.05
2023-10-09T12:19:39.518Z,8.05
2023-10-09T12:21:17.691Z,8.15
2023-10-09T12:22:53.668Z,8.52
2023-10-09T12:24:31.253Z,8.75
2023-10-09T12:26:07.802Z,7.57
2023-10-09T12:27:45.660Z,7.65
2023-10-09T12:29:21.930Z,8.70
2023-10-09T12:31:03.232Z,7.72
2023-10-09T12:32:39.531Z,8.25
2023-10-09T12:34:18.771Z,9.27
2023-10-09T12:35:54.651Z,7.82
2023-10-09T12:37:33.353Z,8.32
2023-10-09T12:39:19.524Z,8.77
2023-10-09T12:40:55.701Z,24.52
2023-10-09T12:42:34.916Z,7.97
2023-10-09T12:44:16.972Z,9.30
2023-10-09T12:45:53.079Z,7.63
2023-10-09T12:47:29.290Z,7.70
2023-10-09T12:49:05.566Z,8.55
2023-10-09T12:50:46.211Z,8.65
2023-10-09T12:52:22.268Z,7.90
2023-10-09T12:54:03.138Z,8.35
2023-10-09T12:55:46.076Z,8.45
2023-10-09T12:57:22.318Z,7.72
2023-10-09T12:58:59.016Z,7.63
2023-10-09T13:00:39.076Z,8.07
2023-10-09T13:02:47.235Z,8.10
2023-10-09T13:04:24.729Z,7.63
2023-10-09T13:06:01.252Z,8.48
2023-10-09T13:07:37.273Z,8.30
2023-10-09T13:09:17.754Z,8.15
2023-10-09T13:11:00.829Z,7.57
2023-10-09T13:12:43.110Z,7.15
2023-10-09T13:14:19.502Z,8.77
2023-10-09T13:15:55.483Z,8.95
2023-10-09T13:17:33.345Z,9.77
2023-10-09T13:19:13.175Z,8.02
2023-10-09T13:20:49.088Z,8.50
2023-10-09T13:22:25.004Z,8.20
2023-10-09T13:24:02.541Z,8.75
2023-10-09T13:25:41.661Z,7.78
2023-10-09T13:27:23.393Z,8.57
2023-10-09T13:29:00.210Z,7.70
2023-10-09T13:30:51.129Z,7.45
2023-10-09T13:32:26.908Z,8.48
2023-10-09T13:34:03.204Z,7.95
2023-10-09T13:35:50.284Z,7.75
2023-10-09T13:37:26.531Z,8.00
2023-10-09T13:39:26.530Z,8.32
2023-10-09T13:41:03.306Z,8.18
2023-10-09T13:42:39.651Z,7.78
2023-10-09T13:44:16.469Z,8.57
2023-10-09T13:45:52.570Z,7.93
2023-10-09T13:47:33.547Z,7.65
2023-10-09T13:49:16.424Z,8.48
2023-10-09T13:51:00.259Z,8.30
2023-10-09T13:52:41.252Z,7.68
2023-10-09T13:54:23.378Z,7.80
2023-10-09T13:55:59.338Z,7.95
2023-10-09T13:57:35.403Z,7.93
2023-10-09T13:59:12.990Z,7.28
2023-10-09T14:00:52.072Z,7.78
2023-10-09T14:02:30.685Z,7.13
2023-10-09T14:04:10.197Z,7.13
2023-10-09T14:05:56.757Z,7.68
2023-10-09T14:07:36.754Z,7.30
2023-10-09T14:09:13.627Z,8.20
2023-10-09T14:10:50.463Z,7.65
2023-10-09T14:12:28.498Z,7.63
2023-10-09T14:14:11.708Z,7.45
2023-10-09T14:15:48.314Z,7.28
2023-10-09T14:17:25.588Z,8.20
2023-10-09T14:19:02.699Z,12.63
2023-10-09T14:20:39.532Z,7.13
2023-10-09T14:22:26.613Z,7.78
2023-10-09T14:25:46.091Z,7.43
2023-10-09T14:27:21.812Z,7.35
2023-10-09T14:29:01.450Z,7.75
2023-10-09T14:30:44.010Z,7.93
2023-10-09T14:32:20.303Z,8.15
2023-10-09T14:33:57.622Z,8.05
2023-10-09T14:35:35.231Z,7.50
2023-10-09T14:37:17.039Z,6.97
2023-10-09T14:38:58.046Z,8.30
2023-10-09T14:40:34.085Z,7.05
2023-10-09T14:42:13.414Z,7.57
2023-10-09T14:43:50.337Z,7.03
2023-10-09T14:45:29.433Z,8.40
2023-10-09T14:47:07.689Z,6.88
2023-10-09T14:48:47.979Z,7.22
2023-10-09T14:50:24.443Z,7.43
2023-10-09T14:52:01.137Z,7.20
2023-10-09T14:53:36.882Z,7.22
2023-10-09T14:55:14.032Z,6.82
2023-10-09T14:56:49.774Z,7.50
2023-10-09T14:58:30.955Z,8.27
2023-10-09T15:00:15.865Z,6.78
2023-10-09T15:01:52.464Z,7.82
2023-10-09T15:03:30.233Z,7.82
2023-10-09T15:05:06.862Z,8.45
2023-10-09T15:06:42.977Z,8.55
2023-10-09T15:08:19.669Z,8.32
2023-10-09T15:09:55.462Z,7.95
2023-10-09T15:11:35.039Z,8.02
2023-10-09T15:13:10.853Z,8.63
2023-10-09T15:14:46.958Z,8.45
2023-10-09T15:16:23.471Z,8.13
2023-10-09T15:17:59.590Z,8.52
2023-10-09T15:19:35.538Z,9.18
2023-10-09T15:21:11.542Z,8.20
2023-10-09T15:22:48.204Z,8.05
2023-10-09T15:24:24.987Z,7.88
2023-10-09T15:26:03.409Z,7.70
2023-10-09T15:27:41.110Z,7.80
2023-10-09T15:29:18.350Z,7.63
2023-10-09T15:30:54.480Z,8.43
2023-10-09T15:32:30.873Z,7.43
2023-10-09T15:34:10.581Z,8.80
2023-10-09T15:35:51.815Z,8.55
2023-10-09T15:37:28.907Z,8.13
2023-10-09T15:39:05.516Z,7.63
2023-10-09T15:40:44.683Z,7.68
2023-10-09T15:42:21.432Z,7.68
2023-10-09T15:44:03.175Z,7.68
2023-10-09T15:45:44.901Z,8.60
2023-10-09T15:47:21.287Z,7.55
2023-10-09T15:48:57.920Z,7.72
2023-10-09T15:50:36.298Z,8.63
2023-10-09T15:52:16.031Z,9.90
2023-10-09T15:53:53.676Z,9.77
2023-10-09T15:55:29.686Z,8.27
2023-10-09T15:57:12.512Z,9.02
2023-10-09T15:58:49.428Z,8.60
2023-10-09T16:00:30.622Z,9.90
2023-10-09T16:02:07.556Z,9.93
2023-10-09T16:03:45.080Z,9.75
2023-10-09T16:05:27.536Z,8.80
2023-10-09T16:07:07.271Z,8.35
2023-10-09T16:08:44.322Z,9.02
2023-10-09T16:10:22.503Z,8.93
2023-10-09T16:11:58.274Z,9.70
2023-10-09T16:13:34.719Z,9.52
2023-10-09T16:15:11.681Z,9.25
2023-10-09T16:16:48.016Z,8.80
2023-10-09T16:18:23.856Z,9.30
2023-10-09T16:20:01.683Z,9.80
2023-10-09T16:21:38.583Z,10.23
2023-10-09T16:23:14.656Z,9.57
2023-10-09T16:24:52.227Z,9.90
2023-10-09T16:26:28.909Z,9.77
2023-10-09T16:28:05.741Z,9.73
2023-10-09T16:29:41.790Z,9.50
2023-10-09T16:31:20.843Z,9.23
2023-10-09T16:32:58.136Z,11.07
2023-10-09T16:34:34.711Z,10.23
2023-10-09T16:36:11.382Z,10.68
2023-10-09T16:37:51.470Z,10.13
2023-10-09T16:39:34.548Z,9.73
2023-10-09T16:41:10.898Z,10.32
2023-10-09T16:42:48.568Z,12.13
2023-10-09T16:44:24.520Z,12.00
2023-10-09T16:46:03.262Z,10.75
2023-10-09T16:47:40.866Z,12.20
2023-10-09T16:49:16.706Z,18.63
2023-10-09T16:50:52.634Z,12.88
2023-10-09T16:52:28.537Z,13.82
2023-10-09T16:54:06.642Z,14.23
2023-10-09T16:55:50.749Z,13.18
2023-10-09T16:57:26.802Z,20.10
2023-10-09T16:59:02.726Z,13.35
2023-10-09T17:00:39.156Z,20.15
2023-10-09T17:02:15.078Z,15.77
2023-10-09T17:03:57.004Z,14.07
2023-10-09T17:05:38.318Z,14.27
2023-10-09T17:07:17.309Z,12.50
2023-10-09T17:08:54.615Z,12.18
2023-10-09T17:10:36.598Z,12.65
2023-10-09T17:12:14.432Z,12.98
2023-10-09T17:13:51.312Z,12.38
2023-10-09T17:15:34.731Z,12.95
2023-10-09T17:17:10.918Z,12.63
2023-10-09T17:18:57.097Z,12.65
2023-10-09T17:22:12.909Z,12.88
2023-10-09T17:23:49.059Z,13.60
2023-10-09T17:25:25.280Z,11.70
2023-10-09T17:27:01.224Z,13.27
2023-10-09T17:28:38.495Z,12.07
2023-10-09T17:30:17.565Z,12.50
2023-10-09T17:31:53.402Z,13.13
2023-10-09T17:33:29.392Z,13.57
2023-10-09T17:35:12.042Z,13.35
2023-10-09T17:36:51.288Z,12.35
2023-10-09T17:38:27.465Z,10.30
2023-10-09T17:40:03.500Z,10.73
2023-10-09T17:41:39.904Z,11.88
2023-10-09T17:43:17.508Z,10.10
2023-10-09T17:44:53.730Z,10.73
2023-10-09T17:46:29.737Z,10.80
2023-10-09T17:48:10.373Z,11.75
2023-10-09T17:49:46.181Z,9.88
2023-10-09T17:51:22.079Z,9.40
2023-10-09T17:53:01.502Z,9.93
2023-10-09T17:54:37.423Z,8.85
2023-10-09T17:56:13.223Z,10.43
2023-10-09T17:57:51.752Z,10.20
2023-10-09T17:59:29.382Z,9.38
2023-10-09T18:01:10.279Z,9.75
2023-10-09T18:02:46.196Z,9.80
2023-10-09T18:04:22.489Z,10.15
2023-10-09T18:05:58.737Z,10.25
2023-10-09T18:07:35.041Z,9.38
2023-10-09T18:09:19.698Z,10.10
2023-10-09T18:11:02.972Z,10.43
2023-10-09T18:12:41.402Z,9.15
2023-10-09T18:14:18.742Z,10.00
2023-10-09T18:16:09.927Z,8.73
2023-10-09T18:17:46.143Z,10.48
2023-10-09T18:19:22.333Z,9.60
2023-10-09T18:20:58.513Z,11.68
2023-10-09T18:22:34.593Z,12.18
2023-10-09T18:24:15.932Z,13.15
2023-10-09T18:26:00.279Z,11.40
2023-10-09T18:27:36.511Z,11.07
2023-10-09T18:29:14.290Z,11.57
2023-10-09T18:30:53.950Z,11.82
2023-10-09T18:32:29.685Z,11.73
2023-10-09T18:34:09.543Z,11.65
2023-10-09T18:35:45.590Z,13.30
2023-10-09T18:37:21.616Z,26.40
2023-10-09T18:38:57.561Z,15.43
2023-10-09T18:40:34.082Z,14.38
2023-10-09T18:42:09.941Z,17.45
2023-10-09T18:43:46.884Z,14.48
2023-10-09T18:45:22.597Z,17.13
2023-10-09T18:46:59.024Z,18.25
2023-10-09T18:48:34.852Z,15.18
2023-10-09T18:50:14.047Z,15.85
2023-10-09T18:51:50.309Z,30.45
2023-10-09T18:53:28.462Z,17.23
2023-10-09T18:55:08.582Z,16.52
2023-10-09T18:56:44.773Z,14.95
2023-10-09T18:58:20.599Z,14.05
2023-10-09T18:59:56.566Z,15.40
2023-10-09T19:01:32.290Z,15.48
2023-10-09T19:03:12.457Z,14.80
2023-10-09T19:04:49.319Z,14.40
2023-10-09T19:06:26.393Z,14.75
2023-10-09T19:08:02.729Z,15.60
2023-10-09T19:09:38.553Z,15.48
2023-10-09T19:11:15.215Z,14.10
2023-10-09T19:12:51.072Z,14.68
2023-10-09T19:14:27.877Z,15.02
2023-10-09T19:16:07.349Z,14.38
2023-10-09T19:17:43.498Z,16.65
2023-10-09T19:19:19.626Z,15.18
2023-10-09T19:20:56.401Z,14.63
2023-10-09T19:22:32.146Z,16.45
2023-10-09T19:24:13.723Z,14.98
2023-10-09T19:25:49.626Z,15.95
2023-10-09T19:27:28.035Z,14.98
2023-10-09T19:29:03.781Z,15.35
2023-10-09T19:30:40.850Z,13.18
2023-10-09T19:32:17.878Z,15.93
2023-10-09T19:33:54.203Z,16.00
2023-10-09T19:35:30.106Z,14.82
2023-10-09T19:37:09.406Z,14.85
2023-10-09T19:38:52.222Z,14.20
2023-10-09T19:40:29.583Z,13.60
2023-10-09T19:42:06.308Z,12.98
2023-10-09T19:43:42.371Z,13.40
2023-10-09T19:45:21.676Z,13.45
2023-10-09T19:46:58.236Z,13.57
2023-10-09T19:48:35.234Z,13.00
2023-10-09T19:50:17.013Z,14.45
2023-10-09T19:51:54.990Z,14.45
2023-10-09T19:53:31.494Z,13.40
2023-10-09T19:55:10.357Z,12.88
2023-10-09T19:56:47.483Z,13.20
2023-10-09T19:58:23.240Z,13.70
2023-10-09T19:59:59.488Z,13.57
2023-10-09T20:01:36.623Z,12.80
2023-10-09T20:03:12.635Z,12.40
2023-10-09T20:04:52.050Z,11.15
2023-10-09T20:06:31.451Z,11.57
2023-10-09T20:08:08.038Z,12.30
2023-10-09T20:09:44.061Z,12.18
2023-10-09T20:11:20.206Z,11.60
2023-10-09T20:12:57.176Z,11.68
2023-10-09T20:14:33.470Z,11.30
2023-10-09T20:16:12.225Z,10.90
2023-10-09T20:17:48.192Z,11.15
2023-10-09T20:19:29.341Z,11.10
2023-10-09T20:22:43.604Z,9.32
2023-10-09T20:24:19.320Z,9.10
2023-10-09T20:26:09.090Z,10.15
2023-10-09T20:27:45.301Z,9.80
2023-10-09T20:29:22.152Z,10.88
2023-10-09T20:31:03.306Z,9.68
2023-10-09T20:32:41.800Z,10.20
2023-10-09T20:34:20.386Z,9.52
2023-10-09T20:35:58.390Z,9.98
2023-10-09T20:37:34.937Z,10.50
2023-10-09T20:39:15.021Z,9.77
2023-10-09T20:40:51.160Z,9.15
2023-10-09T20:42:27.178Z,9.70
2023-10-09T20:44:06.574Z,10.10
2023-10-09T20:45:42.790Z,9.00
2023-10-09T20:47:18.721Z,9.80
2023-10-09T20:48:54.510Z,9.95
2023-10-09T20:50:31.608Z,9.70
2023-10-09T20:52:08.020Z,9.65
2023-10-09T20:53:44.100Z,8.65
2023-10-09T20:55:21.627Z,9.13
2023-10-09T20:56:57.694Z,9.27
2023-10-09T20:58:33.471Z,9.95
2023-10-09T21:00:20.977Z,8.18
2023-10-09T21:01:57.193Z,8.90
2023-10-09T21:03:33.318Z,8.82
2023-10-09T21:05:13.269Z,8.52
2023-10-09T21:06:49.222Z,8.70
2023-10-09T21:08:25.101Z,10.00
2023-10-09T21:10:02.426Z,8.68
2023-10-09T21:11:38.600Z,8.23
2023-10-09T21:13:16.769Z,7.90
2023-10-09T21:14:52.554Z,7.70
2023-10-09T21:16:28.761Z,7.78
2023-10-09T21:18:07.244Z,7.82
2023-10-09T21:19:44.632Z,8.52
2023-10-09T21:21:20.776Z,8.32
2023-10-09T21:22:57.582Z,8.40
2023-10-09T21:24:33.467Z,8.18
2023-10-09T21:26:24.376Z,8.90
2023-10-09T21:28:00.285Z,7.68
2023-10-09T21:29:36.692Z,9.68
2023-10-09T21:31:14.377Z,8.52
2023-10-09T21:32:50.806Z,8.43
2023-10-09T21:34:26.897Z,8.70
2023-10-09T21:36:03.089Z,8.45
2023-10-09T21:37:39.965Z,7.28
2023-10-09T21:39:19.684Z,7.38
2023-10-09T21:40:56.549Z,7.75
2023-10-09T21:42:32.422Z,7.78
2023-10-09T21:44:09.527Z,7.90
2023-10-09T21:45:50.173Z,7.35
2023-10-09T21:47:26.007Z,7.70
2023-10-09T21:49:02.178Z,8.23
2023-10-09T21:50:39.128Z,7.15
2023-10-09T21:52:15.122Z,7.68
2023-10-09T21:53:52.454Z,8.75
2023-10-09T21:55:36.287Z,8.15
2023-10-09T21:57:12.051Z,8.57
2023-10-09T21:58:48.025Z,7.57
2023-10-09T22:00:32.950Z,7.90
2023-10-09T22:02:09.172Z,7.85
2023-10-09T22:03:47.062Z,7.85
2023-10-09T22:05:23.255Z,8.20
2023-10-09T22:06:58.995Z,8.15
2023-10-09T22:08:35.270Z,8.02
2023-10-09T22:10:17.019Z,9.25
2023-10-09T22:11:53.408Z,7.60
2023-10-09T22:13:29.170Z,8.10
2023-10-09T22:15:07.649Z,8.40
2023-10-09T22:16:46.859Z,9.25
2023-10-09T22:18:22.931Z,8.48
2023-10-09T22:19:58.998Z,7.03
2023-10-09T22:21:38.031Z,7.68
2023-10-09T22:23:15.723Z,8.25
2023-10-09T22:24:52.517Z,7.60
2023-10-09T22:26:28.581Z,7.28
2023-10-09T22:28:11.033Z,8.43